Apple Valley, North Dakota
Current Conditions -  °F | °C
As of 9:52 PM on Saturday 20 Dec 2014 (Local Time) from KBIS Reporting Station
Clear Clear  
Wind Chill: -12°   Ceiling: Unl
Heat Index: -8°   Visibility: 10mi
Dew Point: -9°   Wind: 5mph
Humidity: 92%   Direction: 60°ENE
Pressure: 29.8"   Gusts: NA
Location:  46.8954°N, 100.519°W
Report Text: KBIS 210352Z 06004KT 10SM CLR M08/M09 A2980 RMK AO2 SLP120 I1000 T10781089
Loading
Personal Weather Stations






























Interactive Weather Map New forecast layout! Learn more

10-Day Weather Forecast

Advertisements
Track Severe Weather on mobile